createdAt,value
2023-04-28T00:01:27.718Z,24.33
2023-04-28T00:03:55.473Z,22.88
2023-04-28T00:06:22.211Z,25.40
2023-04-28T00:08:48.903Z,26.30
2023-04-28T00:11:15.458Z,24.92
2023-04-28T00:13:42.012Z,24.10
2023-04-28T00:16:08.612Z,25.10
2023-04-28T00:18:35.296Z,23.58
2023-04-28T00:21:01.940Z,27.58
2023-04-28T00:23:28.625Z,29.98
2023-04-28T00:25:57.354Z,31.25
2023-04-28T00:28:34.138Z,30.87
2023-04-28T00:31:03.004Z,30.77
2023-04-28T00:33:29.546Z,30.45
2023-04-28T00:36:00.788Z,33.05
2023-04-28T00:38:27.526Z,29.92
2023-04-28T00:40:54.104Z,32.40
2023-04-28T00:43:20.724Z,32.33
2023-04-28T00:45:47.338Z,30.23
2023-04-28T00:48:14.155Z,31.85
2023-04-28T00:50:40.910Z,30.25
2023-04-28T00:53:08.070Z,30.83
2023-04-28T00:55:35.395Z,32.60
2023-04-28T00:58:02.665Z,30.33
2023-04-28T01:00:29.372Z,33.67
2023-04-28T01:02:57.365Z,31.35
2023-04-28T01:05:28.947Z,35.30
2023-04-28T01:07:56.506Z,33.80
2023-04-28T01:10:23.223Z,35.53
2023-04-28T01:12:49.931Z,36.88
2023-04-28T01:15:18.479Z,35.25
2023-04-28T01:17:47.705Z,35.55
2023-04-28T01:20:15.368Z,34.90
2023-04-28T01:22:42.563Z,33.50
2023-04-28T01:25:09.670Z,34.60
2023-04-28T01:27:36.325Z,32.90
2023-04-28T01:30:03.273Z,34.42
2023-04-28T01:32:30.013Z,35.13
2023-04-28T01:34:56.663Z,32.55
2023-04-28T01:37:26.486Z,31.33
2023-04-28T01:39:53.866Z,31.50
2023-04-28T01:42:20.520Z,32.60
2023-04-28T01:44:47.131Z,33.72
2023-04-28T01:47:14.004Z,35.38
2023-04-28T01:49:40.621Z,30.27
2023-04-28T01:52:07.958Z,31.13
2023-04-28T01:54:35.056Z,28.10
2023-04-28T01:57:03.225Z,25.13
2023-04-28T01:59:31.027Z,26.65
2023-04-28T02:01:57.988Z,26.45
2023-04-28T02:04:25.004Z,27.23
2023-04-28T02:06:51.826Z,26.13
2023-04-28T02:09:18.372Z,26.60
2023-04-28T02:11:45.260Z,25.40
2023-04-28T02:14:11.911Z,26.58
2023-04-28T02:16:38.526Z,26.50
2023-04-28T02:19:05.047Z,25.75
2023-04-28T02:21:31.895Z,30.45
2023-04-28T02:23:58.754Z,32.95
2023-04-28T02:26:25.862Z,34.78
2023-04-28T02:28:52.480Z,36.40
2023-04-28T02:31:19.210Z,36.85
2023-04-28T02:33:46.532Z,37.17
2023-04-28T02:36:13.396Z,38.33
2023-04-28T02:38:41.659Z,38.10
2023-04-28T02:41:11.395Z,36.17
2023-04-28T02:43:38.037Z,39.65
2023-04-28T02:46:05.172Z,37.17
2023-04-28T02:48:33.096Z,38.17
2023-04-28T02:50:59.784Z,37.47
2023-04-28T02:53:26.504Z,37.65
2023-04-28T02:55:53.214Z,33.70
2023-04-28T02:58:19.913Z,34.22
2023-04-28T03:00:47.192Z,34.55
2023-04-28T03:03:14.484Z,32.65
2023-04-28T03:05:41.564Z,34.00
2023-04-28T03:08:08.054Z,33.88
2023-04-28T03:10:34.796Z,30.27
2023-04-28T03:13:02.391Z,30.05
2023-04-28T03:15:29.998Z,31.95
2023-04-28T03:17:57.591Z,29.60
2023-04-28T03:20:24.294Z,28.27
2023-04-28T03:22:50.877Z,28.92
2023-04-28T03:25:18.375Z,28.85
2023-04-28T03:27:48.453Z,27.95
2023-04-28T03:30:15.233Z,27.67
2023-04-28T03:32:41.872Z,26.75
2023-04-28T03:35:09.130Z,28.65
2023-04-28T03:37:36.330Z,27.52
2023-04-28T03:40:03.411Z,27.40
2023-04-28T03:42:39.927Z,27.08
2023-04-28T03:45:12.458Z,30.60
2023-04-28T03:47:39.227Z,27.60
2023-04-28T03:50:06.455Z,26.23
2023-04-28T03:52:33.049Z,26.63
2023-04-28T03:55:00.017Z,28.88
2023-04-28T03:57:27.015Z,28.60
2023-04-28T03:59:53.519Z,27.25
2023-04-28T04:02:20.338Z,26.77
2023-04-28T04:04:47.298Z,28.20
2023-04-28T04:07:14.324Z,28.67
2023-04-28T04:09:42.099Z,27.95
2023-04-28T04:12:09.439Z,28.70
2023-04-28T04:14:36.895Z,28.95
2023-04-28T04:17:03.858Z,29.40
2023-04-28T04:19:30.770Z,29.25
2023-04-28T04:21:57.685Z,29.23
2023-04-28T04:24:25.078Z,29.13
2023-04-28T04:26:51.913Z,35.17
2023-04-28T04:29:29.042Z,30.65
2023-04-28T04:31:56.378Z,29.85
2023-04-28T04:34:23.021Z,33.00
2023-04-28T04:36:49.678Z,30.30
2023-04-28T04:39:16.818Z,30.98
2023-04-28T04:41:43.448Z,30.80
2023-04-28T04:44:35.855Z,33.25
2023-04-28T04:47:06.157Z,31.75
2023-04-28T04:49:34.236Z,33.83
2023-04-28T04:52:02.915Z,33.85
2023-04-28T04:54:30.392Z,31.88
2023-04-28T04:56:58.224Z,33.55
2023-04-28T04:59:43.511Z,31.75
2023-04-28T05:02:15.875Z,31.15
2023-04-28T05:04:42.716Z,31.60
2023-04-28T05:07:10.639Z,33.28
2023-04-28T05:09:40.107Z,34.40
2023-04-28T05:12:07.477Z,34.60
2023-04-28T05:14:34.073Z,31.35
2023-04-28T05:17:00.794Z,30.25
2023-04-28T05:19:33.341Z,32.85
2023-04-28T05:22:01.090Z,32.75
2023-04-28T05:24:28.115Z,30.98
2023-04-28T05:26:58.717Z,30.30
2023-04-28T05:29:25.632Z,28.75
2023-04-28T05:31:52.215Z,29.52
2023-04-28T05:34:22.295Z,29.60
2023-04-28T05:36:49.484Z,28.60
2023-04-28T05:39:17.670Z,29.92
2023-04-28T05:41:44.594Z,25.83
2023-04-28T05:44:11.793Z,32.63
2023-04-28T05:46:39.628Z,29.10
2023-04-28T05:49:06.245Z,27.83
2023-04-28T05:51:36.928Z,32.10
2023-04-28T05:54:03.639Z,32.20
2023-04-28T05:56:33.250Z,31.98
2023-04-28T05:59:04.275Z,31.33
2023-04-28T06:01:32.119Z,30.50
2023-04-28T06:03:59.025Z,29.65
2023-04-28T06:06:27.796Z,30.02
2023-04-28T06:08:54.606Z,27.40
2023-04-28T06:11:22.621Z,25.48
2023-04-28T06:13:50.846Z,26.73
2023-04-28T06:16:18.928Z,27.77
2023-04-28T06:18:48.465Z,26.52
2023-04-28T06:21:17.334Z,22.60
2023-04-28T06:23:44.295Z,23.67
2023-04-28T06:26:10.954Z,20.48
2023-04-28T06:28:39.445Z,20.77
2023-04-28T06:31:07.681Z,18.42
2023-04-28T06:33:34.248Z,20.02
2023-04-28T06:36:01.304Z,21.08
2023-04-28T06:38:27.834Z,20.25
2023-04-28T06:40:54.417Z,19.73
2023-04-28T06:43:21.049Z,19.52
2023-04-28T06:46:01.112Z,19.48
2023-04-28T06:48:27.969Z,18.52
2023-04-28T06:50:54.630Z,17.70
2023-04-28T06:53:22.591Z,17.40
2023-04-28T06:55:49.208Z,15.93
2023-04-28T06:58:16.272Z,15.02
2023-04-28T07:00:42.843Z,14.73
2023-04-28T07:03:09.633Z,14.10
2023-04-28T07:05:36.327Z,15.18
2023-04-28T07:08:03.635Z,15.05
2023-04-28T07:10:30.183Z,13.90
2023-04-28T07:12:56.805Z,13.05
2023-04-28T07:15:24.549Z,12.95
2023-04-28T07:17:51.472Z,13.30
2023-04-28T07:20:18.357Z,11.05
2023-04-28T07:22:44.948Z,10.80
2023-04-28T07:25:11.879Z,12.15
2023-04-28T07:27:38.621Z,11.60
2023-04-28T07:30:18.419Z,12.80
2023-04-28T07:32:52.659Z,12.13
2023-04-28T07:35:19.234Z,11.75
2023-04-28T07:37:46.274Z,11.45
2023-04-28T07:40:13.020Z,11.07
2023-04-28T07:42:39.709Z,11.50
2023-04-28T07:45:06.830Z,10.38
2023-04-28T07:47:33.715Z,10.60
2023-04-28T07:50:03.439Z,11.10
2023-04-28T07:52:30.086Z,10.77
2023-04-28T07:54:56.675Z,11.13
2023-04-28T07:57:23.443Z,9.85
2023-04-28T07:59:50.512Z,10.32
2023-04-28T08:02:17.188Z,10.23
2023-04-28T08:04:43.980Z,7.43
2023-04-28T08:07:11.194Z,8.85
2023-04-28T08:09:37.823Z,8.32
2023-04-28T08:12:04.494Z,8.60
2023-04-28T08:14:30.994Z,7.00
2023-04-28T08:16:57.971Z,7.90
2023-04-28T08:19:24.685Z,8.52
2023-04-28T08:21:51.450Z,5.50
2023-04-28T08:24:18.274Z,5.13
2023-04-28T08:26:45.577Z,6.05
2023-04-28T08:29:12.547Z,6.18
2023-04-28T08:31:42.233Z,5.45
2023-04-28T08:34:08.762Z,6.25
2023-04-28T08:36:35.441Z,5.80
2023-04-28T08:39:04.382Z,5.95
2023-04-28T08:41:37.426Z,6.57
2023-04-28T08:44:08.918Z,7.07
2023-04-28T08:46:36.149Z,6.38
2023-04-28T08:49:06.341Z,6.07
2023-04-28T08:51:43.699Z,8.40
2023-04-28T08:54:29.503Z,6.20
2023-04-28T08:56:57.936Z,8.05
2023-04-28T08:59:24.787Z,7.05
2023-04-28T09:01:51.886Z,5.03
2023-04-28T09:04:19.774Z,6.03
2023-04-28T09:06:46.838Z,6.43
2023-04-28T09:09:27.358Z,5.97
2023-04-28T09:11:59.550Z,6.50
2023-04-28T09:14:32.993Z,6.57
2023-04-28T09:16:59.855Z,6.18
2023-04-28T09:19:34.522Z,5.28
2023-04-28T09:22:05.687Z,6.80
2023-04-28T09:24:40.521Z,6.20
2023-04-28T09:27:10.725Z,5.47
2023-04-28T09:29:38.611Z,6.10
2023-04-28T09:32:16.325Z,6.78
2023-04-28T09:34:50.691Z,5.68
2023-04-28T09:37:21.476Z,6.13
2023-04-28T09:39:52.739Z,5.60
2023-04-28T09:42:41.614Z,6.47
2023-04-28T09:45:10.379Z,6.45
2023-04-28T09:47:39.935Z,6.68
2023-04-28T09:50:14.338Z,5.80
2023-04-28T09:52:42.112Z,6.05
2023-04-28T09:55:09.039Z,5.70
2023-04-28T09:57:36.824Z,6.07
2023-04-28T10:00:08.924Z,5.43
2023-04-28T10:05:09.666Z,5.70
2023-04-28T10:07:37.750Z,5.70
2023-04-28T10:10:06.290Z,5.63
2023-04-28T10:12:33.183Z,6.20
2023-04-28T10:15:00.026Z,6.05
2023-04-28T10:17:29.141Z,6.22
2023-04-28T10:19:55.958Z,5.72
2023-04-28T10:22:53.629Z,6.60
2023-04-28T10:27:40.382Z,6.20
2023-04-28T10:30:26.486Z,5.97
2023-04-28T10:33:06.665Z,5.45
2023-04-28T10:35:36.168Z,5.30
2023-04-28T10:38:16.094Z,6.05
2023-04-28T10:40:51.052Z,5.25
2023-04-28T10:43:32.852Z,5.95
2023-04-28T10:46:02.821Z,5.80
2023-04-28T10:48:29.789Z,6.10
2023-04-28T10:51:09.797Z,5.80
2023-04-28T10:53:42.467Z,6.03
2023-04-28T10:56:09.662Z,6.32
2023-04-28T10:58:39.888Z,5.90
2023-04-28T11:01:22.184Z,6.95
2023-04-28T11:04:02.361Z,5.32
2023-04-28T11:06:39.472Z,5.20
2023-04-28T11:09:12.212Z,5.57
2023-04-28T11:11:40.232Z,5.35
2023-04-28T11:14:22.038Z,5.72
2023-04-28T11:16:50.480Z,4.88
2023-04-28T11:19:22.909Z,5.53
2023-04-28T11:21:50.138Z,4.90
2023-04-28T11:24:17.313Z,5.50
2023-04-28T11:26:44.674Z,6.85
2023-04-28T11:29:12.243Z,5.32
2023-04-28T11:31:50.905Z,5.22
2023-04-28T11:34:26.732Z,5.25
2023-04-28T11:36:54.913Z,4.80
2023-04-28T11:39:33.267Z,5.35
2023-04-28T11:42:02.831Z,5.28
2023-04-28T11:44:31.244Z,5.10
2023-04-28T11:47:01.086Z,4.93
2023-04-28T11:49:41.476Z,5.47
2023-04-28T11:52:09.112Z,4.40
2023-04-28T11:54:35.999Z,4.65
2023-04-28T11:57:08.866Z,5.18
2023-04-28T11:59:35.917Z,5.60
2023-04-28T12:02:05.617Z,4.57
2023-04-28T12:04:40.986Z,5.30
2023-04-28T12:07:10.537Z,5.70
2023-04-28T12:09:39.405Z,5.30
2023-04-28T12:12:14.419Z,4.75
2023-04-28T12:15:01.522Z,4.50
2023-04-28T12:17:32.221Z,4.40
2023-04-28T12:20:04.088Z,4.82
2023-04-28T12:25:08.362Z,5.20
2023-04-28T12:27:39.054Z,4.05
2023-04-28T12:30:21.147Z,4.93
2023-04-28T12:32:48.384Z,5.13
2023-04-28T12:35:15.998Z,4.20
2023-04-28T12:37:43.186Z,4.53
2023-04-28T12:40:10.687Z,4.15
2023-04-28T12:42:37.388Z,5.93
2023-04-28T12:45:05.822Z,4.65
2023-04-28T12:47:32.548Z,4.90
2023-04-28T12:49:59.186Z,4.80
2023-04-28T12:52:26.538Z,4.82
2023-04-28T12:54:53.149Z,4.95
2023-04-28T12:57:20.521Z,4.88
2023-04-28T12:59:48.386Z,4.85
2023-04-28T13:02:15.531Z,4.78
2023-04-28T13:04:48.453Z,5.32
2023-04-28T13:07:16.175Z,4.38
2023-04-28T13:09:43.764Z,5.55
2023-04-28T13:12:11.832Z,4.43
2023-04-28T13:14:38.479Z,5.28
2023-04-28T13:17:05.074Z,4.20
2023-04-28T13:19:32.661Z,4.30
2023-04-28T13:21:59.367Z,5.60
2023-04-28T13:24:28.873Z,4.53
2023-04-28T13:26:55.421Z,4.57
2023-04-28T13:29:22.548Z,4.78
2023-04-28T13:31:49.330Z,4.55
2023-04-28T13:34:17.445Z,4.43
2023-04-28T13:36:45.038Z,5.35
2023-04-28T13:39:13.516Z,4.78
2023-04-28T13:41:40.359Z,4.50
2023-04-28T13:44:06.948Z,4.88
2023-04-28T13:46:34.031Z,4.70
2023-04-28T13:49:00.916Z,4.68
2023-04-28T13:51:28.760Z,4.38
2023-04-28T13:53:55.309Z,4.65
2023-04-28T13:56:21.928Z,5.35
2023-04-28T13:58:48.566Z,5.65
2023-04-28T14:01:15.455Z,4.68
2023-04-28T14:03:42.189Z,5.78
2023-04-28T14:06:09.173Z,6.53
2023-04-28T14:08:36.043Z,5.18
2023-04-28T14:11:02.652Z,4.53
2023-04-28T14:13:29.770Z,5.43
2023-04-28T14:15:59.473Z,4.25
2023-04-28T14:18:26.905Z,5.38
2023-04-28T14:20:54.499Z,4.80
2023-04-28T14:23:24.585Z,8.02
2023-04-28T14:25:55.986Z,7.07
2023-04-28T14:28:23.079Z,5.10
2023-04-28T14:30:50.081Z,6.05
2023-04-28T14:33:16.871Z,4.30
2023-04-28T14:35:43.461Z,6.65
2023-04-28T14:38:10.878Z,5.07
2023-04-28T14:40:37.471Z,4.75
2023-04-28T14:43:04.792Z,4.72
2023-04-28T14:45:31.539Z,4.72
2023-04-28T14:47:58.625Z,5.03
2023-04-28T14:50:26.885Z,5.35
2023-04-28T14:52:53.530Z,4.68
2023-04-28T14:55:20.158Z,5.00
2023-04-28T14:57:48.184Z,5.43
2023-04-28T15:00:15.364Z,5.55
2023-04-28T15:02:42.093Z,5.40
2023-04-28T15:05:09.639Z,5.78
2023-04-28T15:07:36.509Z,6.25
2023-04-28T15:10:03.094Z,5.53
2023-04-28T15:12:30.574Z,5.82
2023-04-28T15:14:57.929Z,5.13
2023-04-28T15:17:24.921Z,6.10
2023-04-28T15:19:51.876Z,6.38
2023-04-28T15:22:18.773Z,5.25
2023-04-28T15:24:46.569Z,7.43
2023-04-28T15:27:13.386Z,6.70
2023-04-28T15:29:40.034Z,6.35
2023-04-28T15:32:06.911Z,5.45
2023-04-28T15:34:33.807Z,6.90
2023-04-28T15:37:01.368Z,6.65
2023-04-28T15:39:28.509Z,5.43
2023-04-28T15:41:56.392Z,5.13
2023-04-28T15:44:23.164Z,6.13
2023-04-28T15:46:51.827Z,7.22
2023-04-28T15:49:18.404Z,5.25
2023-04-28T15:51:45.581Z,5.53
2023-04-28T15:54:12.602Z,5.45
2023-04-28T15:56:39.366Z,6.57
2023-04-28T15:59:05.847Z,4.80
2023-04-28T16:01:32.520Z,5.90
2023-04-28T16:03:59.283Z,5.13
2023-04-28T16:06:25.942Z,6.20
2023-04-28T16:08:52.574Z,6.25
2023-04-28T16:11:20.369Z,6.30
2023-04-28T16:13:46.895Z,6.00
2023-04-28T16:16:13.548Z,6.20
2023-04-28T16:18:40.121Z,4.85
2023-04-28T16:21:06.798Z,5.57
2023-04-28T16:23:33.696Z,5.38
2023-04-28T16:26:00.765Z,5.72
2023-04-28T16:28:27.558Z,6.35
2023-04-28T16:30:54.254Z,6.18
2023-04-28T16:33:20.750Z,5.88
2023-04-28T16:35:54.933Z,5.38
2023-04-28T16:38:21.841Z,6.15
2023-04-28T16:40:49.179Z,6.47
2023-04-28T16:43:15.947Z,6.90
2023-04-28T16:45:43.500Z,6.78
2023-04-28T16:48:10.149Z,6.40
2023-04-28T16:50:38.697Z,5.15
2023-04-28T16:53:06.659Z,5.30
2023-04-28T16:57:51.731Z,5.75
2023-04-28T17:00:18.850Z,5.63
2023-04-28T17:02:45.609Z,6.25
2023-04-28T17:05:12.619Z,6.03
2023-04-28T17:07:39.127Z,5.65
2023-04-28T17:10:09.453Z,5.20
2023-04-28T17:12:38.238Z,4.90
2023-04-28T17:15:06.953Z,4.60
2023-04-28T17:17:34.583Z,5.65
2023-04-28T17:20:02.326Z,6.15
2023-04-28T17:22:30.606Z,5.88
2023-04-28T17:24:59.802Z,5.25
2023-04-28T17:27:26.586Z,4.78
2023-04-28T17:29:53.575Z,9.60
2023-04-28T17:32:20.381Z,72.15
2023-04-28T17:34:47.469Z,96.68
2023-04-28T17:37:14.184Z,7.07
2023-04-28T17:39:40.706Z,7.30
2023-04-28T17:42:07.410Z,8.85
2023-04-28T17:44:33.916Z,11.07
2023-04-28T17:47:01.233Z,5.70
2023-04-28T17:49:27.975Z,8.32
2023-04-28T17:51:54.715Z,48.30
2023-04-28T17:54:21.228Z,15.07
2023-04-28T17:56:47.859Z,5.70
2023-04-28T17:59:15.898Z,8.95
2023-04-28T18:01:42.808Z,8.55
2023-04-28T18:04:09.538Z,7.22
2023-04-28T18:06:36.255Z,7.72
2023-04-28T18:09:02.812Z,7.95
2023-04-28T18:11:29.436Z,6.97
2023-04-28T18:13:56.312Z,39.33
2023-04-28T18:16:22.886Z,113.05
2023-04-28T18:18:49.449Z,143.43
2023-04-28T18:21:16.621Z,193.43
2023-04-28T18:23:43.319Z,302.90
2023-04-28T18:26:10.021Z,61.13
2023-04-28T18:28:36.839Z,70.38
2023-04-28T18:31:07.356Z,19.00
2023-04-28T18:33:34.072Z,57.92
2023-04-28T18:36:06.362Z,73.63
2023-04-28T18:38:37.227Z,23.02
2023-04-28T18:41:14.823Z,17.10
2023-04-28T18:43:42.897Z,12.30
2023-04-28T18:46:15.332Z,9.75
2023-04-28T18:48:42.239Z,10.30
2023-04-28T18:51:11.620Z,10.13
2023-04-28T18:53:40.930Z,74.13
2023-04-28T18:56:07.602Z,258.58
2023-04-28T18:58:37.171Z,33.67
2023-04-28T19:01:04.290Z,182.52
2023-04-28T19:03:31.808Z,40.22
2023-04-28T19:05:58.473Z,90.35
2023-04-28T19:08:28.064Z,34.75
2023-04-28T19:10:57.076Z,16.10
2023-04-28T19:13:26.534Z,7.95
2023-04-28T19:15:57.032Z,20.90
2023-04-28T19:18:23.648Z,9.82
2023-04-28T19:20:52.170Z,13.98
2023-04-28T19:23:21.871Z,10.70
2023-04-28T19:25:48.629Z,50.75
2023-04-28T19:28:15.431Z,13.32
2023-04-28T19:30:42.109Z,9.35
2023-04-28T19:33:09.450Z,15.68
2023-04-28T19:35:36.091Z,87.35
2023-04-28T19:38:02.796Z,38.53
2023-04-28T19:40:30.396Z,9.68
2023-04-28T19:42:57.374Z,18.17
2023-04-28T19:45:24.571Z,11.57
2023-04-28T19:47:52.323Z,83.50
2023-04-28T19:50:19.474Z,101.20
2023-04-28T19:52:46.426Z,32.10
2023-04-28T19:55:18.408Z,32.70
2023-04-28T20:00:13.542Z,72.28
2023-04-28T20:02:40.728Z,23.02
2023-04-28T20:05:08.092Z,54.35
2023-04-28T20:07:42.470Z,386.15
2023-04-28T20:10:09.565Z,118.03
2023-04-28T20:12:36.126Z,212.00
2023-04-28T20:15:02.848Z,63.85
2023-04-28T20:17:29.391Z,77.85
2023-04-28T20:19:56.385Z,48.63
2023-04-28T20:22:23.222Z,10.15
2023-04-28T20:24:50.205Z,9.88
2023-04-28T20:27:16.802Z,15.70
2023-04-28T20:29:52.779Z,81.93
2023-04-28T20:32:22.671Z,27.48
2023-04-28T20:34:49.508Z,16.45
2023-04-28T20:37:24.606Z,28.08
2023-04-28T20:39:51.547Z,19.83
2023-04-28T20:42:18.415Z,35.35
2023-04-28T20:44:48.661Z,28.58
2023-04-28T20:47:24.756Z,116.32
2023-04-28T20:52:24.242Z,59.67
2023-04-28T20:54:52.063Z,24.65
2023-04-28T20:57:18.911Z,48.15
2023-04-28T20:59:45.912Z,101.95
2023-04-28T21:02:12.670Z,202.98
2023-04-28T21:04:42.166Z,79.30
2023-04-28T21:07:08.752Z,80.13
2023-04-28T21:09:37.416Z,77.28
2023-04-28T21:12:04.434Z,86.13
2023-04-28T21:14:34.295Z,79.57
2023-04-28T21:17:03.392Z,49.20
2023-04-28T21:19:30.815Z,11.40
2023-04-28T21:21:58.321Z,26.05
2023-04-28T21:24:27.208Z,28.73
2023-04-28T21:26:53.862Z,50.08
2023-04-28T21:29:20.362Z,56.47
2023-04-28T21:31:47.412Z,59.80
2023-04-28T21:34:14.004Z,41.95
2023-04-28T21:36:40.602Z,38.30
2023-04-28T21:39:07.733Z,47.33
2023-04-28T21:41:34.504Z,56.63
2023-04-28T21:44:01.138Z,34.97
2023-04-28T21:46:28.185Z,92.78
2023-04-28T21:48:55.293Z,61.00
2023-04-28T21:51:21.878Z,95.10
2023-04-28T21:53:51.069Z,96.93
2023-04-28T21:56:20.197Z,159.80
2023-04-28T21:58:46.784Z,143.02
2023-04-28T22:01:17.955Z,359.52
2023-04-28T22:03:46.164Z,243.47
2023-04-28T22:06:13.596Z,55.85
2023-04-28T22:08:40.325Z,14.15
2023-04-28T22:11:06.937Z,11.48
2023-04-28T22:13:33.748Z,12.25
2023-04-28T22:16:01.845Z,10.77
2023-04-28T22:18:29.136Z,11.65
2023-04-28T22:20:55.744Z,12.73
2023-04-28T22:23:22.868Z,12.38
2023-04-28T22:25:50.170Z,12.13
2023-04-28T22:28:16.829Z,13.65
2023-04-28T22:30:46.676Z,12.30
2023-04-28T22:33:13.442Z,13.95
2023-04-28T22:35:40.556Z,12.30
2023-04-28T22:38:07.999Z,11.82
2023-04-28T22:40:34.551Z,11.60
2023-04-28T22:43:01.125Z,13.85
2023-04-28T22:45:28.744Z,13.00
2023-04-28T22:47:56.296Z,12.05
2023-04-28T22:50:23.087Z,13.07
2023-04-28T22:52:50.358Z,12.95
2023-04-28T22:55:17.061Z,11.05
2023-04-28T22:57:43.642Z,14.25
2023-04-28T23:00:10.669Z,13.50
2023-04-28T23:02:37.472Z,12.15
2023-04-28T23:05:04.732Z,12.63
2023-04-28T23:07:31.479Z,13.18
2023-04-28T23:09:57.999Z,14.25
2023-04-28T23:12:24.613Z,13.65
2023-04-28T23:14:51.173Z,13.05
2023-04-28T23:17:18.972Z,13.63
2023-04-28T23:19:45.532Z,13.85
2023-04-28T23:22:12.093Z,14.23
2023-04-28T23:24:42.292Z,12.63
2023-04-28T23:27:09.362Z,13.55
2023-04-28T23:29:36.161Z,13.32
2023-04-28T23:32:03.527Z,14.57
2023-04-28T23:34:33.402Z,12.75
2023-04-28T23:37:01.046Z,12.18
2023-04-28T23:39:29.877Z,12.10
2023-04-28T23:41:56.445Z,13.88
2023-04-28T23:44:22.965Z,12.68
2023-04-28T23:46:49.566Z,13.27
2023-04-28T23:49:16.426Z,13.98
2023-04-28T23:51:43.232Z,12.73
2023-04-28T23:54:09.819Z,13.05
2023-04-28T23:56:36.430Z,12.70
2023-04-28T23:59:03.272Z,12.85
